Time;durP1;ratioP1;P1;durP2;ratioP2;P2;SDS_P1;SDS_P2;PMS_P1;PMS_P2;Temp;Humidity;BMP_temperature;BMP_pressure;BME280_temperature;BME280_humidity;BME280_pressure;Samples;Min_cycle;Max_cycle;Signal;HPM_P1;HPM_P2
2022/04/01 00:01:26;;;;;;;5.55;4.18;;;0.40;99.90;;;;;;4961006;28;20170;-77
2022/04/01 00:03:59;;;;;;;6.60;4.80;;;0.40;99.90;;;;;;4959461;28;20056;-78
2022/04/01 00:06:50;;;;;;;5.28;4.25;;;0.40;99.90;;;;;;4961045;28;20046;-78
2022/04/01 00:09:24;;;;;;;5.97;4.13;;;0.50;99.90;;;;;;4961440;28;20097;-78
2022/04/01 00:12:03;;;;;;;6.57;4.63;;;0.40;99.90;;;;;;4961294;28;20521;-78
2022/04/01 00:14:41;;;;;;;5.40;3.70;;;0.40;99.90;;;;;;4961579;28;20085;-78
2022/04/01 00:17:12;;;;;;;6.90;4.50;;;0.40;99.90;;;;;;4960682;28;20480;-78
2022/04/01 00:19:49;;;;;;;7.68;4.30;;;0.40;99.90;;;;;;4961011;28;20054;-78
2022/04/01 00:22:20;;;;;;;6.70;4.00;;;0.40;99.90;;;;;;4956897;28;20055;-78
2022/04/01 00:24:59;;;;;;;5.45;3.67;;;0.40;99.90;;;;;;4950895;28;20129;-78
2022/04/01 00:30:27;;;;;;;7.57;4.10;;;0.50;99.90;;;;;;4975655;28;20386;-78
2022/04/01 00:32:56;;;;;;;6.50;4.18;;;0.50;99.90;;;;;;4960308;28;20054;-78
2022/04/01 00:35:44;;;;;;;6.68;4.40;;;0.40;99.90;;;;;;4960559;28;20038;-78
2022/04/01 00:38:28;;;;;;;4.82;3.97;;;0.40;99.90;;;;;;4960528;28;20051;-78
2022/04/01 00:40:58;;;;;;;6.07;4.18;;;0.30;99.90;;;;;;4960648;28;20046;-78
2022/04/01 00:43:32;;;;;;;7.22;4.68;;;0.40;99.90;;;;;;4959928;28;20501;-78
2022/04/01 00:46:24;;;;;;;6.97;3.50;;;0.40;99.90;;;;;;4956842;28;20046;-78
2022/04/01 00:49:03;;;;;;;5.43;3.42;;;0.30;99.90;;;;;;4940939;28;20062;-78
2022/04/01 00:51:54;;;;;;;5.45;3.60;;;0.40;99.90;;;;;;4972002;28;20496;-79
2022/04/01 00:54:29;;;;;;;4.35;2.95;;;0.30;99.90;;;;;;4881594;28;20225;-78
2022/04/01 00:57:13;;;;;;;4.72;3.10;;;0.40;99.90;;;;;;4960120;28;20047;-78
2022/04/01 00:59:54;;;;;;;5.25;3.17;;;0.40;99.90;;;;;;4960772;28;20493;-78
2022/04/01 01:02:20;;;;;;;4.40;2.63;;;0.40;99.90;;;;;;4959951;28;20038;-78
2022/04/01 01:05:04;;;;;;;6.40;3.33;;;0.30;99.90;;;;;;4955455;28;20047;-78
2022/04/01 01:07:57;;;;;;;3.90;2.60;;;0.40;99.90;;;;;;4954392;28;20382;-78
2022/04/01 01:10:22;;;;;;;5.20;2.90;;;0.40;99.90;;;;;;4959636;28;20041;-78
2022/04/01 01:12:53;;;;;;;6.65;2.95;;;0.30;99.90;;;;;;4959281;28;20031;-78
2022/04/01 01:15:27;;;;;;;4.70;3.25;;;0.40;99.90;;;;;;4956771;28;20041;-78
2022/04/01 01:17:53;;;;;;;6.35;2.80;;;0.30;99.90;;;;;;4952705;28;20090;-78
2022/04/01 01:20:21;;;;;;;4.07;2.58;;;0.30;99.90;;;;;;4960146;28;20060;-79
2022/04/01 01:22:53;;;;;;;4.47;2.83;;;0.30;99.90;;;;;;4972574;28;20038;-77
2022/04/01 01:25:27;;;;;;;4.43;2.78;;;0.40;99.90;;;;;;4956469;28;20047;-78
2022/04/01 01:28:08;;;;;;;5.63;2.58;;;0.30;99.90;;;;;;4940870;28;20047;-78
2022/04/01 01:31:00;;;;;;;5.10;2.92;;;0.30;99.90;;;;;;4967820;28;20085;-78
2022/04/01 01:33:31;;;;;;;6.50;2.75;;;0.30;99.90;;;;;;4959262;28;20121;-78
2022/04/01 01:36:13;;;;;;;6.85;3.30;;;0.30;99.90;;;;;;4959321;28;20054;-78
2022/04/01 01:38:41;;;;;;;3.97;2.47;;;0.30;99.90;;;;;;4959024;28;20034;-78
2022/04/01 01:41:18;;;;;;;4.30;2.60;;;0.30;99.90;;;;;;4959942;28;20043;-78
2022/04/01 01:43:50;;;;;;;4.60;2.53;;;0.30;99.90;;;;;;4953042;28;20055;-78
2022/04/01 01:46:21;;;;;;;3.97;2.65;;;0.30;99.90;;;;;;4940527;28;20278;-78
2022/04/01 01:48:49;;;;;;;5.65;2.30;;;0.30;99.90;;;;;;4953551;28;20046;-77
2022/04/01 01:57:10;;;;;;;4.70;2.58;;;0.30;99.90;;;;;;4974860;28;20109;-78
2022/04/01 01:59:45;;;;;;;4.13;2.63;;;0.30;99.90;;;;;;4956726;28;20405;-78
2022/04/01 02:02:24;;;;;;;5.80;3.28;;;0.30;99.90;;;;;;4958984;28;20465;-78
2022/04/01 02:04:50;;;;;;;5.78;3.40;;;0.40;99.90;;;;;;4974658;28;20481;-78
2022/04/01 02:07:20;;;;;;;4.10;2.53;;;0.30;99.90;;;;;;4974570;28;20077;-78
2022/04/01 02:09:53;;;;;;;;;;;0.40;99.90;;;;;;4945450;28;20039;-79
2022/04/01 02:12:24;;;;;;;5.57;2.67;;;0.40;99.90;;;;;;4958864;28;19944;-78
2022/04/01 02:15:02;;;;;;;;;;;;;;;;;;;;;
2022/04/01 02:17:39;;;;;;;4.90;3.05;;;0.20;99.90;;;;;;4974120;28;20074;-78
2022/04/01 02:20:14;;;;;;;7.20;3.33;;;0.30;99.90;;;;;;4975660;28;20046;-77
2022/04/01 02:22:43;;;;;;;4.07;3.00;;;0.20;99.90;;;;;;4959314;28;20089;-78
2022/04/01 02:25:30;;;;;;;5.53;3.10;;;0.20;99.90;;;;;;4976319;28;20049;-78
2022/04/01 02:28:02;;;;;;;5.07;2.58;;;0.30;99.90;;;;;;4973980;28;20053;-78
2022/04/01 02:30:30;;;;;;;5.82;3.10;;;0.30;99.90;;;;;;4958704;28;20404;-78
2022/04/01 02:33:11;;;;;;;5.70;2.90;;;0.30;99.90;;;;;;4958496;28;20049;-78
2022/04/01 02:35:48;;;;;;;4.80;3.25;;;0.30;99.90;;;;;;4958440;28;20092;-78
2022/04/01 02:38:39;;;;;;;4.47;2.88;;;0.30;99.90;;;;;;4958478;28;20478;-78
2022/04/01 02:41:24;;;;;;;5.10;3.17;;;0.30;99.90;;;;;;4954554;28;20105;-78
2022/04/01 02:44:08;;;;;;;4.70;2.92;;;0.30;99.90;;;;;;4948056;28;20050;-76
2022/04/01 02:46:34;;;;;;;6.03;3.85;;;0.30;99.90;;;;;;4958233;28;20049;-78
2022/04/01 02:49:29;;;;;;;4.93;2.55;;;0.30;99.90;;;;;;4954990;28;20047;-78
2022/04/01 02:52:13;;;;;;;3.40;2.33;;;0.30;99.90;;;;;;4940774;28;20055;-78
2022/04/01 02:54:39;;;;;;;6.07;3.33;;;0.40;99.90;;;;;;4972724;28;20050;-78
2022/04/01 02:57:16;;;;;;;5.88;3.20;;;0.40;99.90;;;;;;4962250;28;20366;-78
2022/04/01 02:59:44;;;;;;;5.18;2.90;;;0.30;99.90;;;;;;4960935;28;20042;-78
2022/04/01 03:02:28;;;;;;;5.43;3.70;;;0.40;99.90;;;;;;4962274;28;20400;-78
2022/04/01 03:05:01;;;;;;;7.00;3.10;;;0.40;99.90;;;;;;4956107;28;20050;-78
2022/04/01 03:07:30;;;;;;;4.90;2.88;;;0.30;99.90;;;;;;4942967;28;20441;-79
2022/04/01 03:10:02;;;;;;;5.45;2.85;;;0.30;99.90;;;;;;4961289;28;20041;-78
2022/04/01 03:12:36;;;;;;;5.95;2.80;;;0.40;99.90;;;;;;4961996;28;20101;-78
2022/04/01 03:15:10;;;;;;;5.82;2.92;;;0.30;99.90;;;;;;4961362;28;20038;-78
2022/04/01 03:17:52;;;;;;;6.60;3.08;;;0.30;99.90;;;;;;4961408;28;20526;-78
2022/04/01 03:20:21;;;;;;;5.75;2.70;;;0.30;99.90;;;;;;4961841;28;20043;-78
2022/04/01 03:23:11;;;;;;;6.15;2.90;;;0.30;99.90;;;;;;4957722;28;20078;-78
2022/04/01 03:25:50;;;;;;;6.50;3.38;;;0.30;99.90;;;;;;4977692;28;20038;-78
2022/04/01 03:28:29;;;;;;;6.28;3.33;;;0.30;99.90;;;;;;4957767;28;20094;-79
2022/04/01 03:30:56;;;;;;;5.32;3.30;;;0.30;99.90;;;;;;4942677;28;20051;-78
2022/04/01 03:33:21;;;;;;;3.85;2.75;;;0.30;99.90;;;;;;4947221;28;20069;-78
2022/04/01 03:35:47;;;;;;;6.03;3.22;;;0.20;99.90;;;;;;4961478;28;20084;-78
2022/04/01 03:38:21;;;;;;;6.30;3.17;;;0.30;99.90;;;;;;4969965;28;20031;-78
2022/04/01 03:41:06;;;;;;;4.43;2.45;;;0.30;99.90;;;;;;4996391;28;20097;-78
2022/04/01 03:43:35;;;;;;;4.93;2.83;;;0.30;99.90;;;;;;4984160;28;20042;-78
2022/04/01 03:46:15;;;;;;;5.43;2.47;;;0.40;99.90;;;;;;4961644;28;20077;-78
2022/04/01 03:49:01;;;;;;;4.32;2.63;;;0.40;99.90;;;;;;4961606;28;20097;-78
2022/04/01 03:51:34;;;;;;;5.30;2.78;;;0.40;99.90;;;;;;4956978;28;20050;-78
2022/04/01 03:54:06;;;;;;;;;;;0.40;99.90;;;;;;4952487;28;20049;-78
2022/04/01 03:56:58;;;;;;;4.50;2.80;;;0.40;99.90;;;;;;4961042;28;19924;-78
2022/04/01 03:59:40;;;;;;;5.82;3.15;;;0.40;99.90;;;;;;4973076;28;20504;-78
2022/04/01 04:02:13;;;;;;;3.85;2.80;;;0.40;99.90;;;;;;4959845;28;20048;-78
2022/04/01 04:04:50;;;;;;;4.80;2.90;;;0.40;99.90;;;;;;4960841;28;20057;-78
2022/04/01 04:07:35;;;;;;;5.63;2.80;;;0.40;99.90;;;;;;4994453;28;20461;-78
2022/04/01 04:10:10;;;;;;;3.60;2.70;;;0.40;99.90;;;;;;4960775;28;20042;-78
2022/04/01 04:12:43;;;;;;;6.93;2.80;;;0.40;99.90;;;;;;4961243;28;20456;-78
2022/04/01 04:15:17;;;;;;;5.03;2.22;;;0.40;99.90;;;;;;4955018;28;20062;-78
2022/04/01 04:17:45;;;;;;;6.30;2.60;;;0.40;99.90;;;;;;4949421;28;20045;-78
2022/04/01 04:20:33;;;;;;;5.53;2.83;;;0.40;99.90;;;;;;4960612;28;20050;-78
2022/04/01 04:23:32;;;;;;;5.68;2.30;;;0.50;99.90;;;;;;4960113;28;20050;-78
2022/04/01 04:26:12;;;;;;;5.13;2.85;;;0.50;99.90;;;;;;4960775;28;20042;-78
2022/04/01 04:28:50;;;;;;;4.30;2.33;;;0.50;99.90;;;;;;4956797;28;20047;-78
2022/04/01 04:31:38;;;;;;;4.55;2.38;;;0.60;99.90;;;;;;4956367;28;20060;-78
2022/04/01 04:34:10;;;;;;;4.88;2.15;;;0.60;99.90;;;;;;4966164;28;20050;-78
2022/04/01 04:36:42;;;;;;;3.70;2.45;;;0.60;99.90;;;;;;4959553;28;20042;-78
2022/04/01 04:39:15;;;;;;;4.32;2.28;;;0.70;99.90;;;;;;4956475;28;20085;-78
2022/04/01 04:41:50;;;;;;;3.78;2.33;;;0.70;99.90;;;;;;4942603;28;20043;-78
2022/04/01 04:44:18;;;;;;;4.93;2.33;;;0.80;99.90;;;;;;4952017;28;20042;-78
2022/04/01 04:47:10;;;;;;;3.72;2.13;;;0.80;99.90;;;;;;4961825;28;20039;-78
2022/04/01 04:49:42;;;;;;;5.22;2.30;;;0.80;99.90;;;;;;4956422;28;20051;-78
2022/04/01 04:52:22;;;;;;;6.75;2.60;;;0.80;99.90;;;;;;4940883;28;20039;-78
2022/04/01 04:54:58;;;;;;;3.63;2.13;;;0.80;99.90;;;;;;4971188;28;20508;-78
2022/04/01 04:57:37;;;;;;;4.85;2.30;;;0.80;99.90;;;;;;4955995;28;20059;-78
2022/04/01 05:00:20;;;;;;;3.78;2.30;;;0.80;99.90;;;;;;4977186;28;20042;-78
2022/04/01 05:03:07;;;;;;;4.07;2.17;;;0.80;99.90;;;;;;4959207;28;20038;-78
2022/04/01 05:05:56;;;;;;;3.00;1.70;;;0.90;99.90;;;;;;4959991;28;20085;-78
2022/04/01 05:08:48;;;;;;;3.35;2.05;;;0.90;99.90;;;;;;4959389;28;20050;-78
2022/04/01 05:11:22;;;;;;;5.60;2.20;;;1.00;99.90;;;;;;4959746;28;20405;-78
2022/04/01 05:14:24;;;;;;;3.45;1.90;;;1.00;99.90;;;;;;4958868;28;20093;-78
2022/04/01 05:17:31;;;;;;;3.85;1.98;;;1.00;99.90;;;;;;4958820;28;20468;-78
2022/04/01 05:20:00;;;;;;;4.22;2.05;;;1.00;99.90;;;;;;4942694;28;20146;-78
2022/04/01 05:22:48;;;;;;;7.28;2.05;;;1.00;99.90;;;;;;4958312;28;20078;-78
2022/04/01 05:25:20;;;;;;;5.38;2.10;;;1.00;99.90;;;;;;4956419;28;20034;-78
2022/04/01 05:27:53;;;;;;;4.25;1.83;;;1.00;99.90;;;;;;4956854;28;20043;-78
2022/04/01 05:30:29;;;;;;;3.63;2.03;;;1.00;99.90;;;;;;4956356;28;20046;-78
2022/04/01 05:32:58;;;;;;;3.40;1.83;;;1.00;99.90;;;;;;4962895;28;20089;-78
2022/04/01 05:35:40;;;;;;;3.90;2.07;;;0.90;99.90;;;;;;4959449;28;20042;-78
2022/04/01 05:38:13;;;;;;;3.63;2.15;;;0.90;99.90;;;;;;4959137;28;20946;-78
2022/04/01 05:40:45;;;;;;;3.45;2.00;;;0.90;99.90;;;;;;4958908;28;20042;-78
2022/04/01 05:43:17;;;;;;;4.63;1.88;;;0.90;99.90;;;;;;4957116;28;20804;-78
2022/04/01 05:45:49;;;;;;;3.42;1.67;;;0.90;99.90;;;;;;4958917;28;20046;-78
2022/04/01 05:48:20;;;;;;;6.65;1.95;;;0.90;99.90;;;;;;4958380;28;20039;-78
2022/04/01 05:50:55;;;;;;;3.67;1.70;;;1.00;99.90;;;;;;4959176;28;20053;-78
2022/04/01 05:53:30;;;;;;;2.58;1.70;;;1.00;99.90;;;;;;4958823;28;20393;-78
2022/04/01 05:56:03;;;;;;;4.25;1.80;;;1.10;99.90;;;;;;4955122;28;20039;-78
2022/04/01 05:58:29;;;;;;;2.30;1.40;;;1.10;99.90;;;;;;4947967;28;20053;-78
2022/04/01 06:01:17;;;;;;;4.05;1.88;;;1.20;99.90;;;;;;4959196;28;20038;-78
2022/04/01 06:04:25;;;;;;;3.85;1.60;;;1.20;99.90;;;;;;4958890;28;20079;-78
2022/04/01 06:07:16;;;;;;;3.05;1.40;;;1.20;99.90;;;;;;4958143;28;20038;-78
2022/04/01 06:10:13;;;;;;;2.67;1.10;;;1.30;99.90;;;;;;4954782;28;20046;-78
2022/04/01 06:13:21;;;;;;;4.68;1.52;;;1.30;99.90;;;;;;4938659;28;20126;-77
2022/04/01 06:16:24;;;;;;;;;;;;;;;;;;;;;
2022/04/01 06:19:23;;;;;;;2.35;1.20;;;1.40;99.90;;;;;;4973156;28;20117;-78
2022/04/01 06:22:09;;;;;;;2.53;1.30;;;1.50;99.90;;;;;;4975897;28;20125;-78
2022/04/01 06:24:59;;;;;;;7.65;3.13;;;1.60;99.90;;;;;;4960178;28;20043;-78
2022/04/01 06:27:45;;;;;;;4.45;2.40;;;1.60;99.90;;;;;;4958049;28;20042;-78
2022/04/01 06:30:22;;;;;;;3.20;1.92;;;1.80;99.90;;;;;;4954768;28;20043;-78
2022/04/01 06:33:49;;;;;;;3.15;1.33;;;1.80;99.90;;;;;;4944014;28;20062;-78
2022/04/01 06:36:27;;;;;;;1.63;1.02;;;1.90;99.90;;;;;;4935915;28;20058;-78
2022/04/01 06:39:21;;;;;;;2.88;1.35;;;1.90;99.90;;;;;;4958096;28;20050;-78
2022/04/01 06:41:54;;;;;;;2.38;1.25;;;2.00;99.90;;;;;;4958148;28;20121;-78
2022/04/01 06:44:33;;;;;;;1.90;1.08;;;2.00;99.90;;;;;;4958234;28;20129;-78
2022/04/01 06:47:02;;;;;;;2.67;1.17;;;2.00;99.90;;;;;;4954528;28;20125;-78
2022/04/01 06:49:27;;;;;;;2.50;1.02;;;2.00;99.90;;;;;;4944601;28;20034;-78
2022/04/01 06:51:58;;;;;;;2.10;1.55;;;2.00;99.90;;;;;;4958266;28;20084;-78
2022/04/01 06:54:26;;;;;;;4.93;1.33;;;2.10;99.90;;;;;;4956364;28;20525;-78
2022/04/01 06:56:55;;;;;;;1.88;0.90;;;2.20;99.90;;;;;;4958674;28;20058;-78
2022/04/01 06:59:26;;;;;;;1.40;0.90;;;2.10;99.90;;;;;;4957836;28;20173;-78
2022/04/01 07:02:18;;;;;;;2.05;1.10;;;2.20;99.90;;;;;;4956778;28;20038;-78
2022/04/01 07:04:46;;;;;;;4.28;1.30;;;2.30;99.90;;;;;;4957061;28;20489;-78
2022/04/01 07:07:15;;;;;;;2.22;1.20;;;2.30;99.90;;;;;;4956743;28;20121;-78
2022/04/01 07:09:43;;;;;;;3.15;1.55;;;2.30;99.90;;;;;;4960761;28;20273;-77
2022/04/01 07:12:09;;;;;;;2.20;1.10;;;2.40;99.90;;;;;;4959348;28;20153;-76
2022/04/01 07:14:35;;;;;;;3.47;1.70;;;2.50;99.90;;;;;;4958514;28;20073;-78
2022/04/01 07:17:01;;;;;;;5.00;1.50;;;2.50;99.90;;;;;;4956710;28;20041;-78
2022/04/01 07:19:39;;;;;;;2.50;1.45;;;2.50;99.90;;;;;;4958662;28;20563;-76
2022/04/01 07:22:25;;;;;;;4.00;1.58;;;2.50;99.90;;;;;;4961613;28;20066;-79
2022/04/01 07:24:59;;;;;;;2.47;1.48;;;2.50;99.90;;;;;;4962728;28;20089;-79
2022/04/01 07:27:38;;;;;;;3.05;1.60;;;2.50;99.90;;;;;;4976431;28;20493;-77
2022/04/01 07:30:10;;;;;;;2.85;1.40;;;2.50;99.90;;;;;;4959317;28;20039;-77
2022/04/01 07:32:39;;;;;;;3.47;1.70;;;2.60;99.90;;;;;;4957301;28;20034;-78
2022/04/01 07:35:25;;;;;;;2.65;1.30;;;2.60;99.90;;;;;;4956127;28;20043;-77
2022/04/01 07:38:06;;;;;;;2.45;1.38;;;2.60;99.90;;;;;;4955476;28;20358;-78
2022/04/01 07:40:42;;;;;;;2.58;1.40;;;2.60;99.90;;;;;;4958129;28;20039;-78
2022/04/01 07:43:13;;;;;;;3.10;1.38;;;2.60;99.90;;;;;;4957920;28;20055;-78
2022/04/01 07:45:47;;;;;;;2.92;1.50;;;2.80;99.90;;;;;;4961512;28;20045;-77
2022/04/01 07:48:18;;;;;;;2.65;1.40;;;2.70;99.90;;;;;;4976794;28;20082;-77
2022/04/01 07:50:51;;;;;;;2.05;1.08;;;2.70;99.90;;;;;;4955577;28;20081;-78
2022/04/01 07:53:26;;;;;;;1.48;0.90;;;2.80;99.90;;;;;;4962198;28;20493;-78
2022/04/01 07:56:09;;;;;;;1.75;0.88;;;2.80;99.90;;;;;;4978398;28;20121;-76
2022/04/01 07:58:35;;;;;;;3.17;1.45;;;2.90;99.90;;;;;;4958331;28;20102;-78
2022/04/01 08:01:09;;;;;;;3.58;1.30;;;2.80;99.90;;;;;;4950402;28;20055;-78
2022/04/01 08:03:50;;;;;;;3.40;1.77;;;2.80;99.90;;;;;;4949708;28;20042;-78
2022/04/01 08:06:29;;;;;;;2.55;1.38;;;2.80;99.90;;;;;;4973424;28;20038;-79
2022/04/01 08:09:34;;;;;;;2.53;1.20;;;3.00;99.90;;;;;;4962652;28;20137;-79
2022/04/01 08:12:25;;;;;;;2.72;1.42;;;2.90;99.90;;;;;;4973981;28;20495;-79
2022/04/01 08:14:54;;;;;;;4.88;1.30;;;3.00;99.90;;;;;;4950314;28;20046;-79
2022/04/01 09:09:27;;;;;;;5.72;3.40;;;3.40;99.90;;;;;;5002446;28;20130;-78
2022/04/01 09:12:46;;;;;;;5.93;3.13;;;3.40;99.90;;;;;;4959842;28;20047;-78
2022/04/01 09:15:12;;;;;;;7.13;3.83;;;3.50;99.90;;;;;;4938579;28;20513;-77
2022/04/01 09:20:56;;;;;;;5.38;3.85;;;3.60;99.90;;;;;;4959040;28;20470;-76
2022/04/01 09:23:23;;;;;;;6.60;3.80;;;3.70;99.90;;;;;;4972158;28;20042;-76
2022/04/01 09:26:04;;;;;;;9.63;5.45;;;3.80;99.90;;;;;;4940515;28;20222;-79
2022/04/01 09:32:10;;;;;;;;;;;;;;;;;;;;;
2022/04/01 09:35:48;;;;;;;5.15;3.95;;;3.80;99.90;;;;;;5007500;28;20424;-77
2022/04/01 09:43:03;;;;;;;6.22;3.97;;;3.80;99.90;;;;;;4914625;29;20085;-79
2022/04/01 09:46:17;;;;;;;7.20;4.93;;;3.80;99.90;;;;;;4860521;29;20053;-77
2022/04/01 09:49:56;;;;;;;7.93;5.13;;;3.70;99.90;;;;;;4823235;29;20056;-77
2022/04/01 10:03:57;;;;;;;8.40;5.18;;;3.60;99.90;;;;;;4931766;29;20490;-77
2022/04/01 10:12:40;;;;;;;7.07;5.28;;;3.70;99.90;;;;;;5107420;23;20499;-78
2022/04/01 10:15:50;;;;;;;7.07;5.25;;;3.70;99.90;;;;;;4985777;28;20042;-77
2022/04/01 10:18:52;;;;;;;8.30;5.50;;;3.70;99.90;;;;;;4990592;28;20038;-76
2022/04/01 10:22:15;;;;;;;;;;;;;;;;;;;;;
2022/04/01 10:29:07;;;;;;;7.60;5.45;;;3.80;99.90;;;;;;5028745;28;20049;-78
2022/04/01 10:32:12;;;;;;;8.48;5.60;;;4.00;99.90;;;;;;4997216;28;20053;-79
2022/04/01 10:35:56;;;;;;;;;;;;;;;;;;;;;
2022/04/01 10:42:32;;;;;;;7.63;4.82;;;4.50;99.90;;;;;;4914587;29;20047;-78
2022/04/01 10:45:16;;;;;;;7.68;5.40;;;4.50;99.90;;;;;;4899729;29;20190;-79
2022/04/01 10:51:39;;;;;;;7.60;5.75;;;4.30;99.90;;;;;;5016410;28;20048;-78
2022/04/01 10:54:28;;;;;;;9.23;5.20;;;4.60;99.90;;;;;;5001825;28;20047;-79
2022/04/01 10:57:17;;;;;;;6.90;5.35;;;4.90;99.90;;;;;;4996867;28;20083;-78
2022/04/01 11:03:48;;;;;;;;;;;;;;;;;;;;;
2022/04/01 11:06:27;;;;;;;7.22;5.57;;;4.80;99.90;;;;;;5002734;28;20045;-79
2022/04/01 11:09:47;;;;;;;6.93;4.95;;;4.90;99.90;;;;;;5017890;28;20045;-79
2022/04/01 11:12:26;;;;;;;7.35;5.40;;;4.80;99.90;;;;;;4979790;28;20046;-79
2022/04/01 11:18:20;;;;;;;7.00;5.05;;;4.20;99.90;;;;;;5014588;28;20041;-79
2022/04/01 11:21:28;;;;;;;6.03;4.32;;;4.00;99.90;;;;;;5007332;28;20044;-81
2022/04/01 11:24:41;;;;;;;5.18;3.58;;;4.00;99.90;;;;;;4979634;28;20045;-78
2022/04/01 11:27:30;;;;;;;4.57;3.28;;;4.00;99.90;;;;;;5011529;28;20572;-76
2022/04/01 11:30:21;;;;;;;5.78;3.90;;;4.10;99.90;;;;;;5002831;28;20034;-78
2022/04/01 11:33:03;;;;;;;7.75;3.95;;;4.10;99.90;;;;;;5000481;28;20037;-78
2022/04/01 11:35:44;;;;;;;5.10;3.45;;;4.30;99.90;;;;;;5006369;28;20104;-77
2022/04/01 11:38:16;;;;;;;6.22;3.47;;;4.30;99.90;;;;;;5011394;28;20095;-78
2022/04/01 11:40:45;;;;;;;4.90;3.38;;;4.20;99.90;;;;;;5010141;28;20068;-78
2022/04/01 11:43:24;;;;;;;5.85;3.53;;;4.10;99.90;;;;;;4997724;28;20527;-80
2022/04/01 11:45:57;;;;;;;4.55;3.20;;;4.00;99.90;;;;;;5013475;28;20121;-77
2022/04/01 11:48:32;;;;;;;3.30;2.33;;;4.00;99.90;;;;;;5007902;28;20075;-78
2022/04/01 11:51:04;;;;;;;4.55;2.92;;;3.90;99.90;;;;;;5013311;28;20034;-79
2022/04/01 11:53:43;;;;;;;6.15;2.40;;;3.80;99.90;;;;;;4987143;28;20041;-77
2022/04/01 11:56:13;;;;;;;3.25;2.35;;;4.00;99.90;;;;;;5002032;28;20416;-77
2022/04/01 11:58:54;;;;;;;4.38;3.05;;;4.40;99.90;;;;;;5006524;28;20046;-77
2022/04/01 12:01:35;;;;;;;4.45;2.08;;;4.50;99.90;;;;;;4995765;28;20112;-77
2022/04/01 12:04:11;;;;;;;3.85;2.67;;;4.50;99.90;;;;;;5000753;28;20044;-77
2022/04/01 12:10:37;;;;;;;5.03;2.58;;;4.40;99.90;;;;;;5033757;28;20095;-82
2022/04/01 12:17:57;;;;;;;5.07;2.38;;;4.70;99.90;;;;;;5027035;28;20051;-82
2022/04/01 12:32:14;;;;;;;3.55;2.15;;;5.20;99.90;;;;;;4946856;29;20058;-82
2022/04/01 12:35:28;;;;;;;3.45;2.25;;;5.00;99.90;;;;;;4939077;29;20075;-82
2022/04/01 12:48:24;;;;;;;4.15;1.95;;;4.60;99.90;;;;;;5003198;28;20072;-82
2022/04/01 12:59:45;;;;;;;3.67;1.80;;;5.50;99.90;;;;;;4946701;28;20073;-83
2022/04/01 13:03:39;;;;;;;;;;;;;;;;;;;;;
2022/04/01 13:06:33;;;;;;;4.25;2.05;;;5.60;99.90;;;;;;4866021;29;20044;-83
2022/04/01 13:26:56;;;;;;;2.40;1.60;;;5.60;99.90;;;;;;4900545;29;20050;-84
2022/04/01 13:34:49;;;;;;;;;;;;;;;;;;;;;
2022/04/01 13:45:52;;;;;;;3.78;2.05;;;5.40;99.90;;;;;;4719540;30;20072;-83
2022/04/01 13:49:43;;;;;;;3.10;1.52;;;5.40;99.90;;;;;;4720982;30;20053;-82
2022/04/01 13:53:36;;;;;;;3.55;2.13;;;5.40;99.90;;;;;;4751266;30;20220;-83
2022/04/01 14:15:40;;;;;;;4.95;2.05;;;5.50;98.70;;;;;;4960962;28;20054;-81
2022/04/01 14:18:14;;;;;;;4.03;2.20;;;5.30;99.90;;;;;;4962632;28;20050;-82
2022/04/01 14:21:13;;;;;;;2.90;1.90;;;5.20;99.90;;;;;;4974648;28;20066;-82
2022/04/01 14:23:50;;;;;;;3.33;2.00;;;5.10;99.90;;;;;;4902962;29;20319;-82
2022/04/01 14:27:15;;;;;;;3.45;1.90;;;5.20;99.90;;;;;;4894397;29;20036;-82
2022/04/01 14:30:23;;;;;;;2.85;1.60;;;5.10;98.20;;;;;;4992053;28;20045;-82
2022/04/01 14:32:53;;;;;;;4.32;1.70;;;5.00;95.20;;;;;;4956536;28;20142;-79
2022/04/01 14:35:21;;;;;;;1.95;1.35;;;5.00;94.50;;;;;;4974238;28;20499;-77
2022/04/01 14:37:47;;;;;;;2.25;1.30;;;5.10;94.70;;;;;;4973538;28;20508;-77
2022/04/01 14:40:15;;;;;;;3.80;1.40;;;5.10;93.30;;;;;;4966309;28;20413;-77
2022/04/01 14:42:42;;;;;;;3.42;1.70;;;5.20;92.70;;;;;;4983792;28;20386;-78
2022/04/01 14:45:08;;;;;;;4.78;2.50;;;5.10;94.10;;;;;;4961949;28;20043;-78
2022/04/01 14:47:34;;;;;;;4.22;1.73;;;5.10;93.50;;;;;;4991457;28;20057;-76
2022/04/01 14:50:02;;;;;;;3.47;1.60;;;5.10;93.20;;;;;;4976915;28;20053;-78
2022/04/01 14:52:28;;;;;;;3.00;1.88;;;5.00;93.90;;;;;;4977207;28;20234;-78
2022/04/01 14:54:55;;;;;;;4.25;2.20;;;5.00;95.10;;;;;;4987122;28;20043;-77
2022/04/01 14:57:24;;;;;;;5.65;2.47;;;5.00;95.40;;;;;;4975153;28;20038;-78
2022/04/01 14:59:53;;;;;;;3.72;1.70;;;5.00;96.40;;;;;;4991897;28;20073;-79
2022/04/01 15:02:20;;;;;;;4.93;1.98;;;5.00;94.20;;;;;;4974943;28;20039;-78
2022/04/01 15:04:46;;;;;;;3.13;1.50;;;5.00;94.40;;;;;;4978695;28;20045;-77
2022/04/01 15:07:16;;;;;;;4.38;2.08;;;5.00;93.90;;;;;;4977605;28;20149;-77
2022/04/01 15:09:43;;;;;;;3.53;1.50;;;5.00;94.40;;;;;;4973420;28;20039;-77
2022/04/01 15:12:11;;;;;;;4.28;1.38;;;5.00;94.70;;;;;;4974545;28;20044;-76
2022/04/01 15:14:39;;;;;;;3.20;1.80;;;5.00;91.80;;;;;;4981920;28;20039;-77
2022/04/01 15:17:05;;;;;;;4.40;1.90;;;4.90;94.80;;;;;;4976076;28;20097;-78
2022/04/01 15:19:34;;;;;;;3.15;1.58;;;4.90;96.30;;;;;;4970583;28;20105;-77
2022/04/01 15:22:03;;;;;;;6.13;2.40;;;4.90;95.70;;;;;;4972272;28;20080;-78
2022/04/01 17:32:42;;;;;;;3.85;1.70;;;4.20;89.50;;;;;;4954595;29;20047;-79
2022/04/01 17:39:06;;;;;;;3.28;2.30;;;4.10;89.00;;;;;;4960139;22;20086;-79
2022/04/01 17:41:33;;;;;;;4.43;1.80;;;4.10;89.80;;;;;;4998163;28;20038;-78
2022/04/01 17:43:59;;;;;;;3.50;1.88;;;4.00;90.30;;;;;;5014470;28;20100;-78
2022/04/01 17:46:28;;;;;;;2.90;1.55;;;4.00;89.20;;;;;;5013763;28;20049;-78
2022/04/01 17:48:54;;;;;;;6.00;1.60;;;4.00;89.30;;;;;;5013485;28;20510;-78
2022/04/01 17:51:21;;;;;;;4.80;2.20;;;4.00;89.20;;;;;;5002149;28;20073;-78
2022/04/01 17:53:47;;;;;;;3.58;1.70;;;3.90;89.30;;;;;;4994158;28;20053;-79
2022/04/01 17:56:16;;;;;;;5.38;1.85;;;4.00;89.60;;;;;;4977816;28;20046;-78
2022/04/01 17:58:43;;;;;;;2.00;1.45;;;3.90;88.60;;;;;;4976825;28;20089;-77
2022/04/01 18:01:11;;;;;;;3.60;1.63;;;3.90;90.30;;;;;;4993263;28;20046;-78
2022/04/01 18:03:39;;;;;;;2.70;1.60;;;3.90;90.00;;;;;;4994078;28;20041;-78
2022/04/01 18:06:06;;;;;;;5.30;1.67;;;3.90;90.50;;;;;;4992872;28;20495;-78
2022/04/01 18:08:34;;;;;;;2.92;1.55;;;3.80;89.80;;;;;;4977752;28;20048;-78
2022/04/01 18:11:05;;;;;;;4.25;1.80;;;3.80;88.40;;;;;;4993076;28;20088;-78
2022/04/01 18:13:31;;;;;;;3.50;1.63;;;3.80;90.70;;;;;;5007768;28;20089;-78
2022/04/01 18:15:57;;;;;;;2.35;1.65;;;3.80;90.10;;;;;;4993416;28;20073;-78
2022/04/01 18:18:23;;;;;;;2.65;1.70;;;3.70;90.60;;;;;;4993845;28;20049;-79
2022/04/01 18:20:50;;;;;;;3.28;1.60;;;3.70;90.80;;;;;;4993227;28;20117;-78
2022/04/01 18:23:16;;;;;;;3.25;1.73;;;3.70;90.70;;;;;;4993434;28;20038;-80
2022/04/01 18:25:50;;;;;;;2.88;1.67;;;3.70;89.20;;;;;;4991397;28;20527;-78
2022/04/01 18:28:18;;;;;;;3.13;1.55;;;3.70;89.80;;;;;;4977258;28;20125;-79
2022/04/01 18:30:46;;;;;;;3.28;1.65;;;3.70;89.50;;;;;;4992506;28;20041;-79
2022/04/01 18:33:20;;;;;;;4.60;1.90;;;3.70;90.20;;;;;;5002351;28;20563;-80
2022/04/01 18:35:50;;;;;;;3.45;2.00;;;3.70;89.90;;;;;;4992887;28;20038;-80
2022/04/01 18:38:20;;;;;;;4.50;1.95;;;3.70;90.60;;;;;;4977394;28;20515;-80
2022/04/01 18:40:49;;;;;;;4.57;1.63;;;3.60;91.30;;;;;;4993676;28;20049;-80
2022/04/01 18:43:17;;;;;;;4.97;1.77;;;3.60;91.60;;;;;;4989422;28;20042;-80
2022/04/01 18:45:44;;;;;;;3.03;1.75;;;3.50;91.50;;;;;;4992341;28;20038;-80
2022/04/01 18:48:11;;;;;;;2.85;1.92;;;3.50;92.00;;;;;;4993204;28;20061;-79
2022/04/01 18:50:39;;;;;;;3.97;1.70;;;3.50;92.10;;;;;;4987583;28;20034;-79
2022/04/01 18:53:06;;;;;;;4.60;1.90;;;3.50;92.80;;;;;;4992207;28;20042;-80
2022/04/01 18:55:35;;;;;;;3.20;1.70;;;3.50;93.00;;;;;;4977308;28;20132;-79
2022/04/01 18:58:01;;;;;;;3.85;2.03;;;3.50;92.90;;;;;;4989760;28;20513;-79
2022/04/01 19:00:27;;;;;;;4.72;2.00;;;3.40;93.10;;;;;;4987546;28;20042;-80
2022/04/01 19:03:31;;;;;;;2.75;1.50;;;3.40;92.80;;;;;;4976937;28;20048;-80
2022/04/01 19:06:22;;;;;;;4.07;1.83;;;3.40;93.70;;;;;;4992709;28;20042;-80
2022/04/01 19:08:50;;;;;;;2.45;1.75;;;3.40;94.00;;;;;;4976810;28;20049;-80
2022/04/01 19:11:56;;;;;;;3.15;2.05;;;3.40;93.90;;;;;;4957516;28;20046;-80
2022/04/01 19:14:26;;;;;;;4.28;2.00;;;3.40;93.90;;;;;;4987729;28;20072;-79
2022/04/01 19:16:52;;;;;;;7.05;2.85;;;3.40;94.10;;;;;;4992615;28;20049;-79
2022/04/01 19:19:25;;;;;;;5.32;2.25;;;3.40;94.50;;;;;;4991048;28;20042;-79
2022/04/01 19:22:06;;;;;;;5.05;2.95;;;3.20;94.80;;;;;;4984584;28;20034;-79
2022/04/01 19:24:34;;;;;;;5.57;2.58;;;3.20;95.10;;;;;;4992581;28;20357;-80
2022/04/01 19:27:01;;;;;;;5.80;3.42;;;3.20;95.10;;;;;;4992709;28;20061;-80
2022/04/01 19:29:26;;;;;;;5.35;2.95;;;3.20;95.00;;;;;;4992867;28;20046;-80
2022/04/01 19:31:57;;;;;;;5.80;2.38;;;3.20;94.80;;;;;;4969760;28;20049;-80
2022/04/01 19:34:28;;;;;;;5.30;2.65;;;3.20;95.50;;;;;;4994521;28;20046;-80
2022/04/01 19:37:00;;;;;;;3.50;2.22;;;3.10;96.10;;;;;;4993015;28;20684;-80
2022/04/01 19:39:26;;;;;;;3.08;2.00;;;3.20;95.80;;;;;;4992561;28;20038;-79